Time;durP1;ratioP1;P1;durP2;ratioP2;P2;SDS_P1;SDS_P2;PMS_P1;PMS_P2;Temp;Humidity;BMP_temperature;BMP_pressure;BME280_temperature;BME280_humidity;BME280_pressure;Samples;Min_cycle;Max_cycle;Signal;HPM_P1;HPM_P2
2022/09/02 00:00:31;;;;;;;;;;;14.50;99.90;;;;;;5034315;28;20334;-71
2022/09/02 00:02:56;;;;;;;;;;;14.50;99.90;;;;;;5048843;28;20355;-71
2022/09/02 00:05:22;;;;;;;;;;;14.50;99.90;;;;;;5023905;28;19971;-71
2022/09/02 00:07:47;;;;;;;;;;;14.50;99.90;;;;;;5025728;28;19960;-71
2022/09/02 00:10:13;;;;;;;;;;;14.50;99.90;;;;;;5022728;28;19920;-71
2022/09/02 00:12:39;;;;;;;;;;;14.40;99.90;;;;;;5043726;28;20276;-71
2022/09/02 00:15:07;;;;;;;;;;;14.40;99.90;;;;;;5040847;28;19954;-71
2022/09/02 00:17:33;;;;;;;;;;;14.40;99.90;;;;;;5041079;28;19920;-71
2022/09/02 00:20:04;;;;;;;;;;;14.30;99.90;;;;;;5050145;28;20019;-71
2022/09/02 00:22:30;;;;;;;;;;;14.40;99.90;;;;;;5052215;28;19927;-71
2022/09/02 00:24:58;;;;;;;;;;;14.30;99.90;;;;;;5033993;28;19925;-71
2022/09/02 00:27:24;;;;;;;;;;;14.30;99.90;;;;;;5051735;28;20293;-71
2022/09/02 00:29:49;;;;;;;;;;;14.30;99.90;;;;;;5033851;28;19928;-71
2022/09/02 00:32:15;;;;;;;;;;;14.30;99.90;;;;;;5024185;28;19928;-71
2022/09/02 00:34:40;;;;;;;;;;;14.20;99.90;;;;;;5021930;28;19921;-71
2022/09/02 00:37:06;;;;;;;;;;;14.20;99.90;;;;;;5025614;28;19947;-71
2022/09/02 00:39:31;;;;;;;;;;;14.20;99.90;;;;;;5040979;28;19921;-71
2022/09/02 00:41:57;;;;;;;;;;;14.20;99.90;;;;;;5041818;28;19924;-71
2022/09/02 00:44:23;;;;;;;;;;;14.40;99.90;;;;;;5024070;28;19928;-70
2022/09/02 00:46:48;;;;;;;;;;;14.20;99.90;;;;;;5025856;28;20368;-71
2022/09/02 00:49:25;;;;;;;;;;;14.20;99.90;;;;;;5051344;28;19935;-70
2022/09/02 00:51:57;;;;;;;;;;;14.20;99.90;;;;;;5033574;28;20034;-71
2022/09/02 00:54:24;;;;;;;;;;;14.10;99.90;;;;;;5033882;28;19921;-71
2022/09/02 00:56:50;;;;;;;;;;;14.10;99.90;;;;;;5033453;28;19956;-71
2022/09/02 00:59:26;;;;;;;;;;;14.00;99.90;;;;;;5051533;28;20372;-71
2022/09/02 01:01:51;;;;;;;;;;;14.00;99.90;;;;;;5024290;28;19928;-71
2022/09/02 01:04:17;;;;;;;;;;;14.00;99.90;;;;;;5024497;28;19925;-70
2022/09/02 01:06:43;;;;;;;;;;;14.00;99.90;;;;;;5044216;28;20416;-71
2022/09/02 01:09:11;;;;;;;;;;;14.00;99.90;;;;;;5046511;28;19924;-71
2022/09/02 01:11:41;;;;;;;;;;;13.90;99.90;;;;;;5026499;28;19925;-71
2022/09/02 01:14:08;;;;;;;;;;;13.90;99.90;;;;;;5028673;28;20376;-71
2022/09/02 01:16:42;;;;;;;;;;;13.90;99.90;;;;;;5030868;28;20039;-71
2022/09/02 01:19:11;;;;;;;;;;;13.90;99.90;;;;;;5030872;28;20338;-71
2022/09/02 01:21:37;;;;;;;;;;;13.80;99.90;;;;;;5044239;28;20016;-71
2022/09/02 01:24:03;;;;;;;;;;;13.80;99.90;;;;;;5028479;28;20364;-72
2022/09/02 01:26:28;;;;;;;;;;;13.70;99.90;;;;;;5033830;28;20296;-72
2022/09/02 01:28:54;;;;;;;;;;;13.70;99.90;;;;;;5037406;28;19927;-72
2022/09/02 01:31:19;;;;;;;;;;;13.60;99.90;;;;;;5032522;28;19920;-72
2022/09/02 01:33:45;;;;;;;;;;;13.60;99.90;;;;;;5027329;28;19924;-72
2022/09/02 01:36:11;;;;;;;;;;;13.60;99.90;;;;;;5030712;28;19928;-72
2022/09/02 01:38:37;;;;;;;;;;;13.50;99.90;;;;;;5036812;28;19981;-72
2022/09/02 01:41:02;;;;;;;;;;;13.50;99.90;;;;;;5036711;28;19916;-72
2022/09/02 01:43:28;;;;;;;;;;;13.40;99.90;;;;;;5055314;28;20007;-71
2022/09/02 01:45:55;;;;;;;;;;;13.40;99.90;;;;;;5049587;28;19921;-72
2022/09/02 01:48:20;;;;;;;;;;;13.40;99.90;;;;;;5032616;28;19920;-72
2022/09/02 01:50:52;;;;;;;;;;;13.40;99.90;;;;;;5037138;28;19982;-72
2022/09/02 01:53:18;;;;;;;;;;;13.30;99.90;;;;;;5054226;28;19928;-72
2022/09/02 01:55:43;;;;;;;;;;;13.40;99.90;;;;;;5054710;28;20320;-72
2022/09/02 01:58:12;;;;;;;;;;;13.30;99.90;;;;;;5054316;28;19920;-72
2022/09/02 02:00:37;;;;;;;;;;;13.30;99.90;;;;;;5033806;28;20300;-71
2022/09/02 02:03:03;;;;;;;;;;;13.30;99.90;;;;;;5045095;28;19921;-72
2022/09/02 02:05:29;;;;;;;;;;;13.30;99.90;;;;;;5043341;28;20253;-72
2022/09/02 02:07:55;;;;;;;;;;;13.30;99.90;;;;;;5044368;28;19944;-72
2022/09/02 02:10:21;;;;;;;;;;;13.20;99.90;;;;;;5043997;28;19916;-72
2022/09/02 02:12:50;;;;;;;;;;;13.20;99.90;;;;;;5050107;28;19921;-72
2022/09/02 02:15:17;;;;;;;;;;;13.20;99.90;;;;;;5028489;28;20369;-72
2022/09/02 02:17:43;;;;;;;;;;;13.20;99.90;;;;;;5049487;28;19921;-72
2022/09/02 02:20:09;;;;;;;;;;;13.20;99.90;;;;;;5031808;28;19921;-72
2022/09/02 02:22:36;;;;;;;;;;;13.20;99.90;;;;;;5036677;28;20288;-72
2022/09/02 02:25:02;;;;;;;;;;;13.10;99.90;;;;;;5036225;28;19962;-72
2022/09/02 02:27:28;;;;;;;;;;;13.30;99.90;;;;;;5054026;28;19925;-72
2022/09/02 02:29:54;;;;;;;;;;;13.10;99.90;;;;;;5036121;28;19990;-71
2022/09/02 02:32:20;;;;;;;;;;;13.10;99.90;;;;;;5047569;28;20000;-72
2022/09/02 02:34:46;;;;;;;;;;;13.10;99.90;;;;;;5027165;28;20011;-72
2022/09/02 02:37:12;;;;;;;;;;;13.10;99.90;;;;;;5042523;28;19971;-72
2022/09/02 02:39:38;;;;;;;;;;;13.00;99.90;;;;;;5044489;28;20316;-72
2022/09/02 02:42:04;;;;;;;;;;;13.00;99.90;;;;;;5025292;28;19931;-72
2022/09/02 02:44:30;;;;;;;;;;;13.00;99.90;;;;;;5025587;28;20016;-72
2022/09/02 02:46:56;;;;;;;;;;;12.90;99.90;;;;;;5025609;28;19921;-72
2022/09/02 02:49:22;;;;;;;;;;;13.00;99.90;;;;;;5035621;28;19943;-72
2022/09/02 02:51:48;;;;;;;;;;;13.00;99.90;;;;;;5053573;28;19931;-72
2022/09/02 02:54:13;;;;;;;;;;;13.00;99.90;;;;;;5035587;28;19921;-72
2022/09/02 02:56:39;;;;;;;;;;;12.90;99.90;;;;;;5053004;28;19975;-72
2022/09/02 02:59:04;;;;;;;;;;;13.00;99.90;;;;;;5053310;28;19916;-72
2022/09/02 03:01:30;;;;;;;;;;;13.00;99.90;;;;;;5046544;28;19928;-72
2022/09/02 03:03:59;;;;;;;;;;;12.90;99.90;;;;;;5045797;28;19921;-72
2022/09/02 03:06:25;;;;;;;;;;;12.90;99.90;;;;;;5043594;28;19925;-72
2022/09/02 03:08:52;;;;;;;;;;;12.80;99.90;;;;;;5025864;28;19921;-72
2022/09/02 03:11:21;;;;;;;;;;;12.80;99.90;;;;;;5024290;28;19925;-72
2022/09/02 03:13:48;;;;;;;;;;;12.70;99.90;;;;;;5044972;28;19971;-72
2022/09/02 03:16:13;;;;;;;;;;;12.70;99.90;;;;;;5039459;28;20012;-72
2022/09/02 03:18:39;;;;;;;;;;;12.70;99.90;;;;;;5030902;28;20324;-72
2022/09/02 03:21:06;;;;;;;;;;;12.70;99.90;;;;;;5024284;28;19921;-72
2022/09/02 03:23:32;;;;;;;;;;;12.70;99.90;;;;;;5043466;28;20308;-72
2022/09/02 03:25:57;;;;;;;;;;;12.60;99.90;;;;;;5024845;28;19924;-72
2022/09/02 03:28:23;;;;;;;;;;;12.60;99.90;;;;;;5024739;28;19921;-72
2022/09/02 03:30:49;;;;;;;;;;;12.60;99.90;;;;;;5022662;28;19947;-72
2022/09/02 03:33:14;;;;;;;;;;;12.60;99.90;;;;;;5034953;28;19924;-72
2022/09/02 03:35:43;;;;;;;;;;;12.60;99.90;;;;;;5035554;28;19921;-72
2022/09/02 03:38:09;;;;;;;;;;;12.70;99.90;;;;;;5048657;28;19924;-72
2022/09/02 03:40:34;;;;;;;;;;;12.70;99.90;;;;;;5052929;28;19968;-72
2022/09/02 03:43:00;;;;;;;;;;;12.70;99.90;;;;;;5052717;28;19975;-72
2022/09/02 03:45:26;;;;;;;;;;;12.70;99.90;;;;;;5034480;28;19927;-72
2022/09/02 03:47:53;;;;;;;;;;;12.60;99.90;;;;;;5023809;28;19921;-72
2022/09/02 03:50:20;;;;;;;;;;;12.60;99.90;;;;;;5046497;28;19966;-72
2022/09/02 03:52:46;;;;;;;;;;;12.60;99.90;;;;;;5034289;28;19970;-72
2022/09/02 03:55:11;;;;;;;;;;;12.60;99.90;;;;;;5034280;28;20281;-72
2022/09/02 03:57:37;;;;;;;;;;;12.60;99.90;;;;;;5052597;28;20458;-72
2022/09/02 04:00:07;;;;;;;;;;;12.60;99.90;;;;;;5030261;28;20343;-72
2022/09/02 04:02:33;;;;;;;;;;;12.60;99.90;;;;;;5025963;28;19921;-72
2022/09/02 04:05:21;;;;;;;;;;;12.60;99.90;;;;;;5022607;28;20896;-72
2022/09/02 04:07:44;;;;;;;;;;;12.60;99.90;;;;;;5031588;28;19920;-72
2022/09/02 04:10:10;;;;;;;;;;;12.50;99.90;;;;;;5052209;28;19920;-72
2022/09/02 04:12:36;;;;;;;;;;;12.50;99.90;;;;;;5033976;28;19920;-72
2022/09/02 04:15:06;;;;;;;;;;;12.70;99.90;;;;;;5033887;28;19956;-72
2022/09/02 04:17:35;;;;;;;;;;;12.70;99.90;;;;;;5039146;28;19921;-72
2022/09/02 04:20:01;;;;;;;;;;;12.30;99.90;;;;;;5033649;28;19920;-71
2022/09/02 04:22:26;;;;;;;;;;;12.30;99.90;;;;;;5052144;28;19920;-71
2022/09/02 04:24:52;;;;;;;;;;;12.30;99.90;;;;;;5033944;28;19928;-72
2022/09/02 04:27:17;;;;;;;;;;;12.30;99.90;;;;;;5033597;28;19943;-72
2022/09/02 04:29:43;;;;;;;;;;;12.20;99.90;;;;;;5051930;28;19921;-71
2022/09/02 04:32:08;;;;;;;;;;;12.40;99.90;;;;;;5027865;28;20058;-73
2022/09/02 04:34:34;;;;;;;;;;;12.20;99.90;;;;;;5040073;28;19921;-73
2022/09/02 04:36:59;;;;;;;;;;;12.10;99.90;;;;;;5025979;28;20276;-73
2022/09/02 04:39:25;;;;;;;;;;;12.10;99.90;;;;;;5022356;28;19925;-73
2022/09/02 04:41:52;;;;;;;;;;;12.10;99.90;;;;;;5041833;28;19924;-73
2022/09/02 04:44:18;;;;;;;;;;;12.10;99.90;;;;;;5041040;28;20003;-72
2022/09/02 04:46:44;;;;;;;;;;;12.10;99.90;;;;;;5022717;28;19956;-73
2022/09/02 04:49:09;;;;;;;;;;;12.10;99.90;;;;;;5032844;28;20664;-73
2022/09/02 04:51:35;;;;;;;;;;;12.00;99.90;;;;;;5051601;28;20347;-73
2022/09/02 04:54:01;;;;;;;;;;;12.10;99.90;;;;;;5032732;28;19920;-73
2022/09/02 04:56:27;;;;;;;;;;;12.00;99.90;;;;;;5051444;28;19925;-74
2022/09/02 04:58:53;;;;;;;;;;;12.00;99.90;;;;;;5029546;28;19952;-74
2022/09/02 05:01:20;;;;;;;;;;;12.00;99.90;;;;;;5047051;28;19964;-73
2022/09/02 05:03:46;;;;;;;;;;;12.00;99.90;;;;;;5023211;28;20380;-79
2022/09/02 05:06:15;;;;;;;;;;;12.00;99.90;;;;;;5041669;28;19969;-79
2022/09/02 05:08:42;;;;;;;;;;;12.00;99.90;;;;;;5023658;28;19920;-72
2022/09/02 05:11:08;;;;;;;;;;;12.00;99.90;;;;;;5023328;28;19921;-73
2022/09/02 05:13:34;;;;;;;;;;;12.20;99.90;;;;;;5041994;28;20299;-73
2022/09/02 05:16:00;;;;;;;;;;;12.00;99.90;;;;;;5023581;28;19921;-73
2022/09/02 05:18:29;;;;;;;;;;;12.00;99.90;;;;;;5031113;28;20011;-77
2022/09/02 05:20:55;;;;;;;;;;;12.10;99.90;;;;;;5022279;28;19925;-75
2022/09/02 05:23:23;;;;;;;;;;;12.10;99.90;;;;;;5042800;28;19924;-74
2022/09/02 05:25:49;;;;;;;;;;;12.00;99.90;;;;;;5039793;28;19986;-75
2022/09/02 05:28:15;;;;;;;;;;;12.10;99.90;;;;;;5025365;28;19939;-74
2022/09/02 05:30:41;;;;;;;;;;;12.10;99.90;;;;;;5022397;28;19920;-77
2022/09/02 05:33:10;;;;;;;;;;;12.20;99.90;;;;;;5022078;28;19924;-72
2022/09/02 05:35:42;;;;;;;;;;;12.50;99.90;;;;;;5024920;28;19975;-79
2022/09/02 05:38:08;;;;;;;;;;;12.30;99.90;;;;;;5022301;28;19921;-78
2022/09/02 05:40:35;;;;;;;;;;;12.40;99.90;;;;;;5040954;28;19921;-73
2022/09/02 05:43:00;;;;;;;;;;;12.40;99.90;;;;;;5041552;28;20427;-80
2022/09/02 05:45:26;;;;;;;;;;;12.40;99.90;;;;;;5021720;28;19921;-74
2022/09/02 05:47:51;;;;;;;;;;;12.60;99.90;;;;;;5031378;28;19921;-85
2022/09/02 05:50:17;;;;;;;;;;;12.60;99.90;;;;;;5045273;28;19929;-82
2022/09/02 05:52:43;;;;;;;;;;;12.60;99.90;;;;;;5027603;28;19927;-76
2022/09/02 05:55:09;;;;;;;;;;;12.70;99.90;;;;;;5042748;28;19929;-79
2022/09/02 05:57:34;;;;;;;;;;;12.70;99.90;;;;;;5027551;28;20349;-80
2022/09/02 06:00:00;;;;;;;;;;;12.80;99.90;;;;;;5027583;28;19947;-80
2022/09/02 06:02:25;;;;;;;;;;;12.80;99.90;;;;;;5034894;28;19924;-78
2022/09/02 06:04:52;;;;;;;;;;;12.90;99.90;;;;;;5053953;28;20265;-78
2022/09/02 06:07:20;;;;;;;;;;;13.00;99.90;;;;;;5051029;28;19928;-78
2022/09/02 06:09:45;;;;;;;;;;;14.20;99.90;;;;;;5051551;28;19921;-78
2022/09/02 06:12:12;;;;;;;;;;;13.10;99.90;;;;;;5052993;28;19917;-78
2022/09/02 06:14:37;;;;;;;;;;;13.10;99.90;;;;;;5054886;28;19927;-78
2022/09/02 06:17:03;;;;;;;;;;;13.20;99.90;;;;;;5053409;28;20413;-77
2022/09/02 06:19:31;;;;;;;;;;;13.30;99.90;;;;;;5036647;28;19921;-78
2022/09/02 06:21:57;;;;;;;;;;;13.40;99.90;;;;;;5054768;28;19927;-78
2022/09/02 06:24:23;;;;;;;;;;;13.50;99.90;;;;;;5037441;28;20341;-78
2022/09/02 06:26:48;;;;;;;;;;;13.50;99.90;;;;;;5037093;28;19982;-78
2022/09/02 06:29:14;;;;;;;;;;;13.60;99.90;;;;;;5037452;28;20020;-78
2022/09/02 06:31:44;;;;;;;;;;;13.70;99.90;;;;;;5030531;28;19967;-78
2022/09/02 06:34:12;;;;;;;;;;;13.80;99.90;;;;;;5016793;28;20342;-78
2022/09/02 06:36:38;;;;;;;;;;;13.90;99.90;;;;;;5017514;28;19925;-76
2022/09/02 06:39:04;;;;;;;;;;;14.00;99.90;;;;;;5017627;28;19943;-76
2022/09/02 06:41:32;;;;;;;;;;;14.10;99.90;;;;;;5016775;28;20440;-75
2022/09/02 06:43:58;;;;;;;;;;;14.20;99.90;;;;;;5017080;28;19921;-76
2022/09/02 06:46:28;;;;;;;;;;;14.30;99.90;;;;;;5036141;28;19983;-76
2022/09/02 06:48:53;;;;;;;;;;;14.50;99.90;;;;;;5034685;28;19928;-77
2022/09/02 06:51:20;;;;;;;;;;;14.60;99.90;;;;;;5017631;28;19925;-78
2022/09/02 06:53:45;;;;;;;;;;;14.80;99.90;;;;;;5016684;28;19921;-75
2022/09/02 06:56:11;;;;;;;;;;;14.90;99.90;;;;;;5034413;28;19921;-75
2022/09/02 06:58:37;;;;;;;;;;;15.30;99.90;;;;;;5017627;28;19975;-75
2022/09/02 07:01:02;;;;;;;;;;;15.20;99.90;;;;;;5017936;28;19921;-75
2022/09/02 07:06:12;;;;;;;;;;;15.40;99.90;;;;;;5019786;28;19921;-75
2022/09/02 07:08:39;;;;;;;;;;;15.50;99.90;;;;;;5021009;28;20367;-74
2022/09/02 07:11:06;;;;;;;;;;;15.60;99.90;;;;;;5036573;28;19971;-74
2022/09/02 07:13:32;;;;;;;;;;;15.80;99.90;;;;;;5054688;28;19920;-73
2022/09/02 07:16:00;;;;;;;;;;;16.00;99.90;;;;;;5036114;28;20269;-76
2022/09/02 07:18:26;;;;;;;;;;;16.20;99.90;;;;;;5039398;28;19946;-76
2022/09/02 07:20:52;;;;;;;;;;;16.80;99.90;;;;;;5016781;28;19967;-76
2022/09/02 07:23:24;;;;;;;;;;;18.00;99.20;;;;;;5034040;28;19928;-76
2022/09/02 07:25:49;;;;;;;;;;;19.40;98.70;;;;;;5041857;28;20351;-73
2022/09/02 07:28:15;;;;;;;;;;;21.00;96.90;;;;;;5027266;28;20027;-75
2022/09/02 07:30:41;;;;;;;;;;;22.20;96.40;;;;;;5032445;28;19921;-75
2022/09/02 07:33:07;;;;;;;;;;;23.00;94.00;;;;;;5017759;28;20384;-75
2022/09/02 07:35:33;;;;;;;;;;;23.90;91.20;;;;;;5039887;28;19921;-76
2022/09/02 07:37:58;;;;;;;;;;;24.50;90.00;;;;;;5034839;28;19928;-75
2022/09/02 07:40:26;;;;;;;;;;;25.00;89.30;;;;;;5054378;28;19921;-76
2022/09/02 07:42:53;;;;;;;;;;;25.40;88.50;;;;;;5053111;28;20364;-74
2022/09/02 07:45:18;;;;;;;;;;;25.80;85.50;;;;;;5035659;28;19991;-74
2022/09/02 07:47:44;;;;;;;;;;;26.00;83.20;;;;;;5051883;28;20039;-73
2022/09/02 07:50:11;;;;;;;;;;;26.50;84.00;;;;;;5035309;28;19925;-74
2022/09/02 07:52:36;;;;;;;;;;;26.80;84.40;;;;;;5018684;28;19927;-74
2022/09/02 07:55:02;;;;;;;;;;;27.40;82.70;;;;;;5015772;28;19921;-74
2022/09/02 07:57:28;;;;;;;;;;;27.60;82.60;;;;;;5033570;28;20137;-74
2022/09/02 07:59:56;;;;;;;;;;;28.00;80.90;;;;;;5016205;28;19921;-73
2022/09/02 08:02:22;;;;;;;;;;;28.20;79.60;;;;;;5034579;28;19927;-74
2022/09/02 08:04:47;;;;;;;;;;;28.00;79.50;;;;;;5013796;28;20332;-76
2022/09/02 08:07:22;;;;;;;;;;;28.30;79.50;;;;;;5014960;28;19921;-76
2022/09/02 08:09:48;;;;;;;;;;;28.60;79.10;;;;;;5015794;28;19964;-77
2022/09/02 08:12:14;;;;;;;;;;;28.70;80.70;;;;;;5031252;28;19917;-76
2022/09/02 08:14:39;;;;;;;;;;;28.80;77.90;;;;;;5067683;23;19998;-76
2022/09/02 08:17:05;;;;;;;;;;;28.60;77.70;;;;;;5055216;28;20296;-78
2022/09/02 08:19:31;;;;;;;;;;;28.50;79.60;;;;;;5045334;28;19924;-76
2022/09/02 08:22:01;;;;;;;;;;;28.90;78.70;;;;;;5055410;28;19920;-75
2022/09/02 08:24:29;;;;;;;;;;;29.20;78.50;;;;;;5073206;28;20459;-76
2022/09/02 08:26:54;;;;;;;;;;;29.50;77.60;;;;;;5054254;28;19998;-76
2022/09/02 08:29:20;;;;;;;;;;;29.90;77.00;;;;;;5055711;28;20347;-76
2022/09/02 08:31:45;;;;;;;;;;;30.00;76.10;;;;;;5053260;28;19917;-73
2022/09/02 08:34:11;;;;;;;;;;;29.90;75.70;;;;;;5072026;28;19967;-77
2022/09/02 08:36:38;;;;;;;;;;;29.90;76.10;;;;;;5055167;28;19920;-77
2022/09/02 08:39:04;;;;;;;;;;;30.20;76.90;;;;;;5054382;28;19971;-76
2022/09/02 08:41:32;;;;;;;;;;;29.90;75.20;;;;;;5073139;28;19920;-76
2022/09/02 08:44:00;;;;;;;;;;;29.80;74.00;;;;;;5072891;28;19921;-76
2022/09/02 08:46:27;;;;;;;;;;;30.00;72.90;;;;;;5052828;28;19920;-76
2022/09/02 08:48:58;;;;;;;;;;;29.70;74.60;;;;;;5072805;28;20079;-80
2022/09/02 08:51:26;;;;;;;;;;;30.10;73.80;;;;;;5073433;28;19916;-78
2022/09/02 08:54:07;;;;;;;;;;;30.20;74.50;;;;;;5054276;28;19927;-76
2022/09/02 08:56:32;;;;;;;;;;;30.10;72.50;;;;;;5072732;28;20273;-80
2022/09/02 08:59:00;;;;;;;;;;;30.60;73.50;;;;;;5070691;28;19920;-79
2022/09/02 09:01:40;;;;;;;;;;;30.60;73.90;;;;;;5054596;28;19955;-79
2022/09/02 09:04:32;;;;;;;;;;;30.70;70.70;;;;;;5054538;28;19916;-79
2022/09/02 09:07:09;;;;;;;;;;;30.50;72.30;;;;;;5054469;28;20372;-80
2022/09/02 09:09:37;;;;;;;;;;;31.00;73.60;;;;;;5072537;28;19924;-82
2022/09/02 09:12:03;;;;;;;;;;;31.00;72.80;;;;;;5054521;28;20421;-82
2022/09/02 09:14:28;;;;;;;;;;;31.00;72.90;;;;;;5052155;28;19921;-80
2022/09/02 09:16:58;;;;;;;;;;;31.00;71.50;;;;;;5072428;28;19999;-80
2022/09/02 09:19:24;;;;;;;;;;;31.20;70.30;;;;;;5054954;28;19920;-82
2022/09/02 09:21:52;;;;;;;;;;;31.00;72.50;;;;;;5054313;28;19928;-80
2022/09/02 09:24:25;;;;;;;;;;;31.30;71.80;;;;;;5072323;28;19920;-80
2022/09/02 09:26:52;;;;;;;;;;;31.70;71.10;;;;;;5074297;28;19970;-76
2022/09/02 09:29:17;;;;;;;;;;;31.50;70.60;;;;;;5074580;28;19927;-82
2022/09/02 09:31:44;;;;;;;;;;;32.10;72.60;;;;;;5075847;28;19920;-79
2022/09/02 09:34:13;;;;;;;;;;;32.20;70.50;;;;;;5076011;28;20431;-79
2022/09/02 09:36:41;;;;;;;;;;;32.10;68.90;;;;;;5058254;28;19927;-83
2022/09/02 09:39:19;;;;;;;;;;;31.60;68.70;;;;;;5058197;28;19920;-74
2022/09/02 09:41:46;;;;;;;;;;;31.80;72.10;;;;;;5076393;28;19927;-71
2022/09/02 09:44:32;;;;;;;;;;;31.70;71.20;;;;;;5073327;28;20298;-70
2022/09/02 09:47:01;;;;;;;;;;;31.90;70.00;;;;;;5075146;28;19974;-70
2022/09/02 09:49:27;;;;;;;;;;;31.90;70.10;;;;;;5076018;28;19966;-71
2022/09/02 09:51:53;;;;;;;;;;;32.20;70.80;;;;;;5057936;28;19921;-72
2022/09/02 09:54:19;;;;;;;;;;;32.20;68.90;;;;;;5076309;28;19920;-72
2022/09/02 09:56:44;;;;;;;;;;;32.10;69.70;;;;;;5075700;28;20402;-70
2022/09/02 09:59:30;;;;;;;;;;;32.30;69.60;;;;;;5051802;28;19983;-70
2022/09/02 10:01:55;;;;;;;;;;;32.50;68.50;;;;;;5062284;28;19921;-71
2022/09/02 10:04:28;;;;;;;;;;;32.80;68.70;;;;;;5057026;28;19924;-70
2022/09/02 10:06:54;;;;;;;;;;;32.40;69.50;;;;;;5075427;28;19924;-71
2022/09/02 10:09:19;;;;;;;;;;;32.00;66.50;;;;;;5075977;28;20319;-71
2022/09/02 10:11:55;;;;;;;;;;;31.50;68.20;;;;;;5075286;28;20372;-71
2022/09/02 10:14:22;;;;;;;;;;;30.90;68.10;;;;;;5057604;28;19920;-75
2022/09/02 10:17:00;;;;;;;;;;;31.00;69.10;;;;;;5074040;28;19926;-70
2022/09/02 10:19:44;;;;;;;;;;;31.20;70.40;;;;;;5056431;28;19966;-69
2022/09/02 10:22:25;;;;;;;;;;;31.30;67.80;;;;;;5057326;28;19950;-71
2022/09/02 10:25:09;;;;;;;;;;;31.70;68.60;;;;;;5075085;28;19924;-70
2022/09/02 10:27:39;;;;;;;;;;;31.50;66.50;;;;;;5057284;28;19920;-68
2022/09/02 10:30:05;;;;;;;;;;;30.50;66.70;;;;;;5057433;28;19939;-70
2022/09/02 10:32:31;;;;;;;;;;;30.10;66.50;;;;;;5045224;28;19924;-70
2022/09/02 10:34:56;;;;;;;;;;;30.30;67.70;;;;;;5054591;28;19920;-71
2022/09/02 10:37:23;;;;;;;;;;;30.70;70.20;;;;;;5054646;28;19921;-70
2022/09/02 10:40:08;;;;;;;;;;;30.70;65.40;;;;;;5036180;28;20357;-70
2022/09/02 10:42:57;;;;;;;;;;;30.30;64.60;;;;;;5055117;28;19927;-67
2022/09/02 10:45:42;;;;;;;;;;;29.90;65.80;;;;;;5055181;28;20348;-68
2022/09/02 10:48:12;;;;;;;;;;;29.60;66.30;;;;;;5054956;28;19920;-67
2022/09/02 10:50:39;;;;;;;;;;;29.60;66.50;;;;;;5054978;28;19960;-66
2022/09/02 10:53:14;;;;;;;;;;;29.50;69.00;;;;;;5053945;28;19920;-67
2022/09/02 10:55:42;;;;;;;;;;;29.40;69.50;;;;;;5054827;28;19932;-67
2022/09/02 10:58:18;;;;;;;;;;;29.90;67.50;;;;;;5036737;28;20385;-72
2022/09/02 11:00:50;;;;;;;;;;;30.40;66.30;;;;;;5054311;28;20383;-67
2022/09/02 11:03:29;;;;;;;;;;;30.50;66.50;;;;;;5052921;28;19995;-66
2022/09/02 11:06:04;;;;;;;;;;;30.70;65.90;;;;;;5074436;28;19920;-67
2022/09/02 11:08:30;;;;;;;;;;;30.70;65.80;;;;;;5074093;28;19920;-66
2022/09/02 11:11:03;;;;;;;;;;;30.60;66.80;;;;;;5056425;28;20423;-66
2022/09/02 11:13:49;;;;;;;;;;;30.40;67.40;;;;;;5072206;28;19921;-71
2022/09/02 11:16:23;;;;;;;;;;;30.20;66.60;;;;;;5028457;28;20069;-72
2022/09/02 11:18:59;;;;;;;;;;;29.90;65.20;;;;;;5055806;28;19920;-71
2022/09/02 11:21:38;;;;;;;;;;;29.70;66.30;;;;;;5072161;28;19920;-73
2022/09/02 11:24:07;;;;;;;;;;;29.60;66.20;;;;;;5055563;28;20323;-72
2022/09/02 11:26:39;;;;;;;;;;;29.90;69.40;;;;;;5073982;28;19921;-70
2022/09/02 11:29:10;;;;;;;;;;;30.10;65.00;;;;;;5058671;28;19920;-71
2022/09/02 11:31:41;;;;;;;;;;;29.80;66.40;;;;;;5056294;28;19920;-71
2022/09/02 11:34:10;;;;;;;;;;;29.40;66.00;;;;;;5055967;28;19921;-70
2022/09/02 11:36:39;;;;;;;;;;;29.40;67.10;;;;;;5054899;28;19928;-73
2022/09/02 11:39:15;;;;;;;;;;;29.20;66.30;;;;;;5074790;28;19959;-76
2022/09/02 11:41:54;;;;;;;;;;;29.50;69.60;;;;;;5074042;28;19920;-71
2022/09/02 11:44:39;;;;;;;;;;;30.00;68.60;;;;;;5056144;28;19917;-74
2022/09/02 11:47:06;;;;;;;;;;;30.50;66.70;;;;;;5054443;28;20380;-76
2022/09/02 11:49:43;;;;;;;;;;;30.80;67.30;;;;;;5054993;28;19916;-73
2022/09/02 11:52:09;;;;;;;;;;;31.00;68.40;;;;;;5073839;28;19924;-74
2022/09/02 11:54:39;;;;;;;;;;;31.40;66.60;;;;;;5073356;28;19927;-72
2022/09/02 11:57:05;;;;;;;;;;;31.60;65.10;;;;;;5055047;28;19956;-72
2022/09/02 11:59:49;;;;;;;;;;;30.90;63.30;;;;;;5055864;28;19935;-70
2022/09/02 12:02:33;;;;;;;;;;;30.90;65.70;;;;;;5072891;28;19977;-69
2022/09/02 12:05:17;;;;;;;;;;;31.10;67.30;;;;;;5053036;28;19920;-70
2022/09/02 12:07:47;;;;;;;;;;;31.10;63.60;;;;;;5050648;28;19921;-68
2022/09/02 12:10:33;;;;;;;;;;;31.30;64.20;;;;;;5053004;28;19936;-69
2022/09/02 12:12:59;;;;;;;;;;;30.90;65.80;;;;;;5070010;28;20356;-71
2022/09/02 12:15:25;;;;;;;;;;;31.30;67.60;;;;;;5054889;28;19920;-72
2022/09/02 12:17:50;;;;;;;;;;;31.50;65.70;;;;;;5054123;28;19924;-71
2022/09/02 12:20:35;;;;;;;;;;;31.40;64.10;;;;;;5067583;28;19921;-70
2022/09/02 12:23:00;;;;;;;;;;;30.80;64.60;;;;;;5064126;28;19964;-71
2022/09/02 12:25:27;;;;;;;;;;;31.10;64.90;;;;;;5052681;28;19972;-69
2022/09/02 12:28:13;;;;;;;;;;;30.70;64.40;;;;;;5067815;28;19920;-72
2022/09/02 12:30:55;;;;;;;;;;;30.50;65.50;;;;;;5052979;28;19927;-74
2022/09/02 12:33:30;;;;;;;;;;;30.90;66.30;;;;;;5062105;28;19920;-71
2022/09/02 12:35:57;;;;;;;;;;;31.10;68.30;;;;;;5054878;28;20002;-72
2022/09/02 12:38:27;;;;;;;;;;;31.10;68.10;;;;;;5052832;28;19927;-74
2022/09/02 12:40:52;;;;;;;;;;;31.00;65.20;;;;;;5048208;28;20376;-72
2022/09/02 12:43:26;;;;;;;;;;;30.50;63.70;;;;;;5063936;28;20007;-71
2022/09/02 12:45:53;;;;;;;;;;;29.70;65.60;;;;;;5044331;28;19960;-71
2022/09/02 12:48:21;;;;;;;;;;;29.70;69.10;;;;;;5043634;28;20383;-71
2022/09/02 12:50:52;;;;;;;;;;;30.00;65.30;;;;;;5061760;28;19920;-72
2022/09/02 12:53:36;;;;;;;;;;;29.50;64.90;;;;;;5046361;28;19920;-72
2022/09/02 12:56:05;;;;;;;;;;;29.40;64.70;;;;;;5048708;28;20415;-73
2022/09/02 12:58:35;;;;;;;;;;;28.70;64.90;;;;;;5053333;28;19925;-72
2022/09/02 13:01:16;;;;;;;;;;;28.60;66.40;;;;;;5047260;28;19966;-73
2022/09/02 13:03:45;;;;;;;;;;;28.40;68.80;;;;;;5064442;28;19928;-73
2022/09/02 13:06:20;;;;;;;;;;;28.30;66.70;;;;;;5052275;28;19982;-73
2022/09/02 13:08:55;;;;;;;;;;;28.40;67.30;;;;;;5070198;28;20384;-70
2022/09/02 13:11:27;;;;;;;;;;;28.30;64.90;;;;;;5063689;28;19928;-72
2022/09/02 13:14:01;;;;;;;;;;;28.20;67.10;;;;;;5046635;28;19928;-71
2022/09/02 13:16:27;;;;;;;;;;;28.20;66.00;;;;;;5046839;28;19928;-72
2022/09/02 13:19:08;;;;;;;;;;;28.10;66.40;;;;;;5070709;28;19921;-70
2022/09/02 13:21:40;;;;;;;;;;;28.10;68.70;;;;;;5050261;28;19932;-71
2022/09/02 13:24:18;;;;;;;;;;;28.10;67.30;;;;;;5051900;28;19971;-72
2022/09/02 13:26:47;;;;;;;;;;;28.10;66.80;;;;;;5047598;28;19948;-72
2022/09/02 13:29:31;;;;;;;;;;;27.90;66.70;;;;;;5050390;28;20323;-71
2022/09/02 13:31:59;;;;;;;;;;;27.90;66.60;;;;;;5046004;28;19967;-70
2022/09/02 13:34:24;;;;;;;;;;;27.90;65.50;;;;;;5052736;28;19921;-71
2022/09/02 13:36:50;;;;;;;;;;;27.80;66.80;;;;;;5053006;28;19931;-73
2022/09/02 13:39:22;;;;;;;;;;;27.90;69.70;;;;;;5053355;28;19924;-70
2022/09/02 13:41:48;;;;;;;;;;;28.20;66.60;;;;;;5070963;28;20300;-71
2022/09/02 13:44:24;;;;;;;;;;;28.20;66.30;;;;;;5053377;28;19921;-71
2022/09/02 13:46:51;;;;;;;;;;;28.10;68.50;;;;;;5052315;28;19921;-69
2022/09/02 13:49:18;;;;;;;;;;;28.20;65.30;;;;;;5052465;28;20434;-71
2022/09/02 13:51:46;;;;;;;;;;;28.20;65.20;;;;;;5065567;28;19932;-69
2022/09/02 13:54:11;;;;;;;;;;;28.20;68.40;;;;;;5048441;28;19932;-69
2022/09/02 13:56:37;;;;;;;;;;;28.20;66.40;;;;;;5065912;28;19921;-71
2022/09/02 13:59:02;;;;;;;;;;;28.20;65.40;;;;;;5068668;28;20363;-70
2022/09/02 14:01:33;;;;;;;;;;;28.10;65.80;;;;;;5088403;28;19927;-70
2022/09/02 14:04:19;;;;;;;;;;;28.10;67.80;;;;;;5072883;28;19919;-71
2022/09/02 14:06:46;;;;;;;;;;;28.30;66.80;;;;;;5061275;28;20019;-70
2022/09/02 14:09:21;;;;;;;;;;;28.50;67.80;;;;;;5053202;28;20011;-71
2022/09/02 14:11:48;;;;;;;;;;;28.60;67.40;;;;;;5053163;28;19927;-69
2022/09/02 14:14:15;;;;;;;;;;;28.50;65.00;;;;;;5075257;28;19920;-67
2022/09/02 14:16:41;;;;;;;;;;;28.30;66.10;;;;;;5057324;28;19979;-70
2022/09/02 14:19:10;;;;;;;;;;;28.30;65.40;;;;;;5074937;28;19928;-69
2022/09/02 14:21:36;;;;;;;;;;;28.30;65.80;;;;;;5081467;28;19943;-68
2022/09/02 14:24:03;;;;;;;;;;;28.30;67.30;;;;;;5094363;28;19920;-69
2022/09/02 14:26:34;;;;;;;;;;;28.30;66.10;;;;;;5095726;28;20006;-68